createdAt,value
2018-12-17T00:00:38.313Z,35.87
2018-12-17T00:03:06.369Z,40.90
2018-12-17T00:05:34.542Z,34.57
2018-12-17T00:08:02.615Z,35.43
2018-12-17T00:10:30.706Z,37.70
2018-12-17T00:12:58.799Z,31.37
2018-12-17T00:15:26.913Z,39.23
2018-12-17T00:17:54.992Z,34.00
2018-12-17T00:20:23.049Z,43.30
2018-12-17T00:22:51.140Z,33.63
2018-12-17T00:25:19.214Z,33.40
2018-12-17T00:27:47.306Z,33.97
2018-12-17T00:30:15.395Z,29.13
2018-12-17T00:32:43.490Z,30.03
2018-12-17T00:35:11.576Z,32.00
2018-12-17T00:37:39.662Z,30.37
2018-12-17T00:40:08.565Z,30.77
2018-12-17T00:42:36.671Z,34.97
2018-12-17T00:45:05.618Z,34.47
2018-12-17T00:47:33.698Z,37.87
2018-12-17T00:50:01.817Z,35.37
2018-12-17T00:52:30.009Z,41.33
2018-12-17T00:54:58.111Z,32.27
2018-12-17T00:57:26.176Z,30.03
2018-12-17T00:59:54.370Z,32.80
2018-12-17T01:02:22.437Z,32.60
2018-12-17T01:04:50.509Z,31.77
2018-12-17T01:07:20.569Z,29.67
2018-12-17T01:09:48.640Z,33.53
2018-12-17T01:12:16.737Z,33.87
2018-12-17T01:14:44.809Z,29.50
2018-12-17T01:17:12.912Z,26.23
2018-12-17T01:19:40.974Z,30.00
2018-12-17T01:22:09.081Z,28.43
2018-12-17T01:24:37.151Z,25.40
2018-12-17T01:27:05.206Z,32.47
2018-12-17T01:29:33.309Z,23.77
2018-12-17T01:32:01.344Z,32.07
2018-12-17T01:34:29.490Z,28.50
2018-12-17T01:36:57.562Z,25.73
2018-12-17T01:39:25.650Z,25.03
2018-12-17T01:41:53.714Z,25.87
2018-12-17T01:44:21.822Z,26.90
2018-12-17T01:46:50.108Z,24.20
2018-12-17T01:49:18.207Z,25.93
2018-12-17T01:51:46.299Z,23.27
2018-12-17T01:54:14.386Z,24.63
2018-12-17T01:56:42.518Z,26.13
2018-12-17T01:59:10.623Z,29.10
2018-12-17T02:01:38.757Z,27.53
2018-12-17T02:04:06.828Z,24.20
2018-12-17T02:06:34.902Z,21.27
2018-12-17T02:09:03.746Z,25.10
2018-12-17T02:11:31.810Z,22.20
2018-12-17T02:13:59.917Z,22.00
2018-12-17T02:16:27.983Z,21.10
2018-12-17T02:18:56.061Z,24.60
2018-12-17T02:21:24.186Z,22.93
2018-12-17T02:23:52.434Z,24.00
2018-12-17T02:26:20.521Z,27.57
2018-12-17T02:28:48.595Z,21.63
2018-12-17T02:31:16.770Z,20.93
2018-12-17T02:33:44.850Z,28.17
2018-12-17T02:36:13.025Z,29.27
2018-12-17T02:38:41.116Z,23.23
2018-12-17T02:41:09.199Z,22.00
2018-12-17T02:43:37.280Z,26.87
2018-12-17T02:46:05.355Z,29.30
2018-12-17T02:48:33.467Z,23.37
2018-12-17T02:51:01.537Z,24.97
2018-12-17T02:53:29.681Z,25.80
2018-12-17T02:55:57.790Z,27.13
2018-12-17T02:58:25.871Z,22.20
2018-12-17T03:00:53.970Z,22.37
2018-12-17T03:03:22.062Z,25.40
2018-12-17T03:05:50.125Z,24.47
2018-12-17T03:08:18.210Z,24.03
2018-12-17T03:10:46.299Z,28.30
2018-12-17T03:13:14.405Z,19.40
2018-12-17T03:15:42.469Z,23.27
2018-12-17T03:18:10.552Z,19.50
2018-12-17T03:20:38.647Z,20.87
2018-12-17T03:23:06.723Z,21.57
2018-12-17T03:25:34.806Z,20.00
2018-12-17T03:28:02.920Z,22.00
2018-12-17T03:30:30.985Z,18.37
2018-12-17T03:32:59.506Z,23.60
2018-12-17T03:35:27.715Z,22.03
2018-12-17T03:37:55.772Z,20.07
2018-12-17T03:40:23.865Z,26.13
2018-12-17T03:42:52.405Z,22.50
2018-12-17T03:45:20.477Z,19.03
2018-12-17T03:47:48.580Z,22.97
2018-12-17T03:50:16.643Z,23.43
2018-12-17T03:52:44.742Z,22.40
2018-12-17T03:55:12.816Z,21.90
2018-12-17T03:57:40.910Z,24.10
2018-12-17T04:00:09.650Z,22.20
2018-12-17T04:02:38.622Z,19.13
2018-12-17T04:05:06.860Z,20.97
2018-12-17T04:07:34.951Z,27.80
2018-12-17T04:10:03.637Z,20.90
2018-12-17T04:12:31.729Z,18.20
2018-12-17T04:14:59.807Z,18.70
2018-12-17T04:17:27.879Z,20.53
2018-12-17T04:19:56.038Z,16.20
2018-12-17T04:22:24.066Z,20.97
2018-12-17T04:24:52.158Z,24.00
2018-12-17T04:27:20.235Z,16.17
2018-12-17T04:29:48.344Z,20.97
2018-12-17T04:32:16.426Z,18.80
2018-12-17T04:34:44.507Z,17.87
2018-12-17T04:37:12.601Z,17.80
2018-12-17T04:39:40.670Z,16.37
2018-12-17T04:42:08.766Z,23.30
2018-12-17T04:44:36.835Z,26.47
2018-12-17T04:47:04.919Z,20.17
2018-12-17T04:49:32.998Z,20.20
2018-12-17T04:52:01.088Z,16.73
2018-12-17T04:54:29.411Z,16.03
2018-12-17T04:56:57.473Z,19.70
2018-12-17T04:59:25.569Z,14.53
2018-12-17T05:01:53.631Z,22.47
2018-12-17T05:04:21.822Z,12.90
2018-12-17T05:06:50.134Z,18.30
2018-12-17T05:09:18.148Z,22.97
2018-12-17T05:11:46.260Z,19.30
2018-12-17T05:14:14.362Z,16.60
2018-12-17T05:16:42.474Z,22.50
2018-12-17T05:19:10.547Z,15.10
2018-12-17T05:21:38.608Z,17.27
2018-12-17T05:24:06.685Z,18.03
2018-12-17T05:26:34.780Z,12.70
2018-12-17T05:29:02.867Z,10.43
2018-12-17T05:31:30.980Z,15.87
2018-12-17T05:33:59.054Z,15.03
2018-12-17T05:36:27.144Z,14.20
2018-12-17T05:38:55.214Z,11.97
2018-12-17T05:41:23.302Z,22.07
2018-12-17T05:43:51.390Z,12.73
2018-12-17T05:46:19.469Z,8.50
2018-12-17T05:48:47.545Z,12.13
2018-12-17T05:51:15.614Z,15.30
2018-12-17T05:53:43.698Z,11.60
2018-12-17T05:56:11.772Z,12.87
2018-12-17T05:58:39.851Z,11.10
2018-12-17T06:01:07.939Z,10.27
2018-12-17T06:03:36.199Z,8.93
2018-12-17T06:06:04.415Z,14.07
2018-12-17T06:08:32.507Z,16.63
2018-12-17T06:11:00.586Z,7.40
2018-12-17T06:13:28.691Z,7.60
2018-12-17T06:15:56.786Z,10.53
2018-12-17T06:18:24.855Z,10.20
2018-12-17T06:20:53.116Z,7.20
2018-12-17T06:23:21.204Z,10.10
2018-12-17T06:25:49.393Z,9.30
2018-12-17T06:28:17.466Z,7.97
2018-12-17T06:30:45.544Z,9.20
2018-12-17T06:33:15.826Z,9.40
2018-12-17T06:35:43.664Z,8.43
2018-12-17T06:38:11.718Z,8.43
2018-12-17T06:40:39.921Z,8.87
2018-12-17T06:43:08.157Z,8.03
2018-12-17T06:45:36.240Z,8.73
2018-12-17T06:48:04.724Z,8.20
2018-12-17T06:50:33.148Z,9.57
2018-12-17T06:53:01.512Z,9.60
2018-12-17T06:55:29.624Z,13.13
2018-12-17T06:57:57.881Z,7.60
2018-12-17T07:00:25.942Z,8.00
2018-12-17T07:02:53.997Z,7.90
2018-12-17T07:05:22.083Z,7.63
2018-12-17T07:07:50.195Z,7.73
2018-12-17T07:10:18.271Z,9.33
2018-12-17T07:12:46.345Z,8.17
2018-12-17T07:15:14.403Z,12.07
2018-12-17T07:17:42.480Z,8.77
2018-12-17T07:20:10.556Z,15.07
2018-12-17T07:22:38.643Z,8.40
2018-12-17T07:25:06.719Z,8.40
2018-12-17T07:27:34.791Z,9.80
2018-12-17T07:30:03.388Z,9.50
2018-12-17T07:32:31.456Z,9.23
2018-12-17T07:34:59.608Z,10.57
2018-12-17T07:37:28.000Z,7.90
2018-12-17T07:39:56.090Z,9.57
2018-12-17T07:42:24.147Z,9.83
2018-12-17T07:44:52.215Z,11.77
2018-12-17T07:47:20.330Z,10.93
2018-12-17T07:49:48.400Z,12.37
2018-12-17T07:52:16.454Z,9.07
2018-12-17T07:54:44.550Z,9.67
2018-12-17T07:57:12.647Z,13.00
2018-12-17T07:59:40.731Z,16.47
2018-12-17T08:02:08.802Z,8.20
2018-12-17T08:04:36.897Z,7.83
2018-12-17T08:07:04.964Z,8.17
2018-12-17T08:09:33.032Z,9.37
2018-12-17T08:12:01.100Z,9.00
2018-12-17T08:14:29.184Z,9.13
2018-12-17T08:16:57.348Z,9.57
2018-12-17T08:19:25.433Z,6.67
2018-12-17T08:21:53.587Z,10.87
2018-12-17T08:24:21.674Z,10.40
2018-12-17T08:26:50.298Z,10.67
2018-12-17T08:29:18.438Z,11.70
2018-12-17T08:31:46.494Z,9.43
2018-12-17T08:34:14.654Z,10.20
2018-12-17T08:36:42.729Z,8.80
2018-12-17T08:39:10.812Z,9.43
2018-12-17T08:41:38.893Z,11.30
2018-12-17T08:44:06.985Z,9.93
2018-12-17T08:46:35.041Z,9.83
2018-12-17T08:49:03.206Z,7.57
2018-12-17T08:51:31.246Z,8.37
2018-12-17T08:53:59.341Z,10.20
2018-12-17T08:56:29.011Z,6.60
2018-12-17T08:58:57.063Z,8.40
2018-12-17T09:01:25.161Z,7.43
2018-12-17T09:03:53.238Z,6.87
2018-12-17T09:06:21.326Z,7.80
2018-12-17T09:08:49.390Z,9.63
2018-12-17T09:11:17.477Z,10.20
2018-12-17T09:13:45.627Z,7.07
2018-12-17T09:16:13.708Z,6.37
2018-12-17T09:18:41.780Z,6.80
2018-12-17T09:21:10.692Z,6.00
2018-12-17T09:23:38.907Z,5.90
2018-12-17T09:26:06.971Z,7.37
2018-12-17T09:28:35.103Z,6.63
2018-12-17T09:31:03.168Z,5.10
2018-12-17T09:33:31.223Z,5.33
2018-12-17T09:35:59.330Z,5.37
2018-12-17T09:38:27.512Z,7.53
2018-12-17T09:40:55.567Z,5.63
2018-12-17T09:43:23.679Z,5.53
2018-12-17T09:45:51.754Z,7.23
2018-12-17T09:48:19.849Z,5.90
2018-12-17T09:50:47.894Z,6.97
2018-12-17T09:53:15.998Z,8.30
2018-12-17T09:55:44.087Z,5.10
2018-12-17T09:58:12.138Z,4.77
2018-12-17T10:00:40.220Z,4.80
2018-12-17T10:03:08.287Z,6.47
2018-12-17T10:05:36.378Z,5.37
2018-12-17T10:08:04.453Z,4.50
2018-12-17T10:10:32.558Z,5.40
2018-12-17T10:13:00.637Z,5.80
2018-12-17T10:15:28.703Z,8.03
2018-12-17T10:17:56.825Z,5.60
2018-12-17T10:20:24.894Z,6.20
2018-12-17T10:22:52.983Z,5.03
2018-12-17T10:25:21.130Z,4.53
2018-12-17T10:27:49.275Z,6.93
2018-12-17T10:30:17.342Z,6.27
2018-12-17T10:32:45.403Z,4.50
2018-12-17T10:35:13.482Z,4.63
2018-12-17T10:37:41.543Z,4.73
2018-12-17T10:40:09.782Z,4.70
2018-12-17T10:42:37.870Z,4.77
2018-12-17T10:45:07.368Z,5.07
2018-12-17T10:47:35.493Z,4.27
2018-12-17T10:50:05.132Z,6.17
2018-12-17T10:52:33.268Z,5.70
2018-12-17T10:55:01.388Z,4.90
2018-12-17T10:57:29.555Z,5.20
2018-12-17T10:59:57.635Z,5.13
2018-12-17T11:02:27.685Z,6.90
2018-12-17T11:04:57.742Z,5.10
2018-12-17T11:07:25.818Z,9.70
2018-12-17T11:09:53.910Z,12.50
2018-12-17T11:12:21.984Z,11.53
2018-12-17T11:14:50.127Z,10.90
2018-12-17T11:17:18.213Z,7.70
2018-12-17T11:19:46.288Z,8.10
2018-12-17T11:22:14.359Z,6.80
2018-12-17T11:24:42.407Z,7.53
2018-12-17T11:27:10.512Z,10.07
2018-12-17T11:29:38.613Z,24.90
2018-12-17T11:32:11.602Z,19.77
2018-12-17T11:34:36.767Z,16.90
2018-12-17T11:37:04.853Z,10.77
2018-12-17T11:39:32.924Z,7.10
2018-12-17T11:42:01.037Z,10.73
2018-12-17T11:44:29.078Z,7.87
2018-12-17T11:46:57.161Z,10.23
2018-12-17T11:49:25.265Z,9.20
2018-12-17T11:51:53.438Z,9.17
2018-12-17T11:54:21.517Z,10.57
2018-12-17T11:59:50.453Z,11.23
2018-12-17T12:02:18.523Z,10.50
2018-12-17T12:04:46.621Z,10.00
2018-12-17T12:07:14.696Z,14.87
2018-12-17T12:09:42.795Z,14.70
2018-12-17T12:12:10.887Z,15.10
2018-12-17T12:14:38.990Z,16.80
2018-12-17T12:17:07.063Z,17.37
2018-12-17T12:19:35.170Z,17.53
2018-12-17T12:22:03.320Z,16.27
2018-12-17T12:24:31.387Z,22.03
2018-12-17T12:26:59.500Z,21.20
2018-12-17T12:29:27.565Z,16.97
2018-12-17T12:31:55.715Z,17.53
2018-12-17T12:34:23.791Z,18.40
2018-12-17T12:36:51.929Z,23.60
2018-12-17T12:39:20.007Z,19.33
2018-12-17T12:41:48.114Z,17.00
2018-12-17T12:44:16.211Z,19.60
2018-12-17T12:46:44.304Z,17.63
2018-12-17T12:49:12.430Z,19.30
2018-12-17T12:51:40.491Z,24.63
2018-12-17T12:54:08.579Z,23.10
2018-12-17T12:56:36.668Z,17.27
2018-12-17T12:59:04.734Z,19.00
2018-12-17T13:01:32.834Z,19.57
2018-12-17T13:04:00.916Z,21.13
2018-12-17T13:06:28.989Z,25.23
2018-12-17T13:08:57.093Z,20.87
2018-12-17T13:11:25.207Z,17.33
2018-12-17T13:13:53.303Z,24.87
2018-12-17T13:16:21.407Z,20.23
2018-12-17T13:18:49.491Z,18.43
2018-12-17T13:21:17.630Z,18.60
2018-12-17T13:23:45.709Z,16.27
2018-12-17T13:26:13.819Z,20.70
2018-12-17T13:28:41.870Z,19.20
2018-12-17T13:31:14.668Z,18.07
2018-12-17T13:33:40.009Z,22.53
2018-12-17T13:36:08.086Z,22.30
2018-12-17T13:38:36.182Z,17.83
2018-12-17T13:41:04.758Z,17.53
2018-12-17T13:43:32.853Z,19.37
2018-12-17T13:46:00.911Z,20.70
2018-12-17T13:48:28.987Z,23.07
2018-12-17T13:50:59.058Z,22.30
2018-12-17T13:53:32.238Z,21.73
2018-12-17T13:56:00.434Z,20.37
2018-12-17T13:58:28.522Z,21.43
2018-12-17T14:00:56.592Z,18.17
2018-12-17T14:03:24.686Z,15.80
2018-12-17T14:05:52.767Z,14.30
2018-12-17T14:08:20.855Z,14.33
2018-12-17T14:10:53.725Z,15.03
2018-12-17T14:13:21.819Z,16.13
2018-12-17T14:15:51.424Z,18.83
2018-12-17T14:18:26.013Z,16.23
2018-12-17T14:20:59.807Z,15.43
2018-12-17T14:23:27.916Z,19.73
2018-12-17T14:25:56.006Z,21.07
2018-12-17T14:28:24.134Z,11.80
2018-12-17T14:30:52.287Z,9.17
2018-12-17T14:33:20.363Z,9.00
2018-12-17T14:35:54.266Z,11.13
2018-12-17T14:38:22.329Z,10.07
2018-12-17T14:40:50.413Z,8.40
2018-12-17T14:43:18.504Z,8.00
2018-12-17T14:45:46.576Z,8.93
2018-12-17T14:48:14.666Z,8.70
2018-12-17T14:50:42.771Z,9.10
2018-12-17T14:53:10.902Z,8.77
2018-12-17T14:55:38.999Z,13.20
2018-12-17T14:58:07.103Z,9.00
2018-12-17T15:00:35.191Z,7.70
2018-12-17T15:03:03.287Z,6.30
2018-12-17T15:05:31.446Z,6.83
2018-12-17T15:07:59.551Z,8.17
2018-12-17T15:10:27.693Z,10.07
2018-12-17T15:12:55.783Z,7.37
2018-12-17T15:15:23.878Z,7.00
2018-12-17T15:17:52.930Z,11.40
2018-12-17T15:20:21.019Z,8.23
2018-12-17T15:22:49.080Z,8.50
2018-12-17T15:25:17.210Z,12.00
2018-12-17T15:27:45.477Z,11.90
2018-12-17T15:30:13.646Z,13.37
2018-12-17T15:32:41.805Z,13.93
2018-12-17T15:35:09.883Z,14.60
2018-12-17T15:37:37.968Z,15.20
2018-12-17T15:40:06.225Z,19.63
2018-12-17T15:42:40.625Z,13.17
2018-12-17T15:45:05.169Z,15.67
2018-12-17T15:47:33.233Z,19.67
2018-12-17T15:50:01.328Z,20.13
2018-12-17T15:52:29.406Z,15.23
2018-12-17T15:54:57.497Z,15.40
2018-12-17T15:57:25.601Z,15.13
2018-12-17T15:59:53.710Z,14.80
2018-12-17T16:02:21.792Z,20.30
2018-12-17T16:04:49.876Z,22.37
2018-12-17T16:07:18.002Z,17.73
2018-12-17T16:09:46.164Z,18.73
2018-12-17T16:12:14.280Z,20.53
2018-12-17T16:14:42.387Z,18.13
2018-12-17T16:17:10.523Z,21.50
2018-12-17T16:19:38.600Z,18.60
2018-12-17T16:22:06.670Z,23.30
2018-12-17T16:24:34.767Z,26.60
2018-12-17T16:27:03.025Z,23.53
2018-12-17T16:29:31.134Z,29.73
2018-12-17T16:31:59.191Z,25.37
2018-12-17T16:34:27.316Z,28.33
2018-12-17T16:36:55.709Z,26.37
2018-12-17T16:39:23.802Z,25.50
2018-12-17T16:41:51.894Z,27.90
2018-12-17T16:44:19.973Z,21.77
2018-12-17T16:46:48.076Z,23.27
2018-12-17T16:49:16.171Z,23.73
2018-12-17T16:51:44.281Z,28.77
2018-12-17T16:54:12.422Z,26.60
2018-12-17T16:56:40.509Z,22.33
2018-12-17T16:59:08.601Z,24.80
2018-12-17T17:01:36.705Z,22.40
2018-12-17T17:04:04.824Z,27.00
2018-12-17T17:06:32.936Z,18.77
2018-12-17T17:09:01.047Z,27.80
2018-12-17T17:11:29.144Z,22.83
2018-12-17T17:13:57.250Z,25.43
2018-12-17T17:16:25.364Z,26.97
2018-12-17T17:18:53.433Z,20.77
2018-12-17T17:21:21.587Z,25.93
2018-12-17T17:23:49.715Z,21.90
2018-12-17T17:26:17.804Z,20.27
2018-12-17T17:28:46.220Z,23.87
2018-12-17T17:31:14.400Z,21.20
2018-12-17T17:33:42.489Z,26.53
2018-12-17T17:36:10.586Z,22.97
2018-12-17T17:38:39.081Z,23.77
2018-12-17T17:41:07.181Z,22.77
2018-12-17T17:43:35.301Z,24.77
2018-12-17T17:46:03.402Z,32.77
2018-12-17T17:48:31.515Z,31.33
2018-12-17T17:51:00.565Z,27.53
2018-12-17T17:53:28.688Z,24.23
2018-12-17T17:55:56.801Z,27.50
2018-12-17T17:58:25.111Z,23.40
2018-12-17T18:00:53.227Z,25.07
2018-12-17T18:03:21.340Z,27.63
2018-12-17T18:05:49.437Z,27.30
2018-12-17T18:08:17.583Z,27.13
2018-12-17T18:10:45.684Z,29.80
2018-12-17T18:13:13.950Z,24.60
2018-12-17T18:15:42.110Z,25.73
2018-12-17T18:18:10.252Z,24.07
2018-12-17T18:20:38.402Z,30.57
2018-12-17T18:23:07.934Z,29.40
2018-12-17T18:25:36.187Z,29.83
2018-12-17T18:28:04.285Z,25.77
2018-12-17T18:30:32.413Z,25.87
2018-12-17T18:33:00.579Z,26.40
2018-12-17T18:35:28.662Z,25.80
2018-12-17T18:37:56.793Z,20.53
2018-12-17T18:40:24.909Z,30.17
2018-12-17T18:42:53.714Z,24.40
2018-12-17T18:45:21.823Z,26.37
2018-12-17T18:47:49.931Z,29.27
2018-12-17T18:50:18.042Z,22.70
2018-12-17T18:52:46.185Z,25.90
2018-12-17T18:55:14.263Z,28.73
2018-12-17T18:57:42.474Z,25.73
2018-12-17T19:00:11.079Z,23.53
2018-12-17T19:02:39.209Z,24.93
2018-12-17T19:05:07.279Z,23.77
2018-12-17T19:07:35.389Z,30.93
2018-12-17T19:10:05.163Z,26.00
2018-12-17T19:12:33.255Z,30.40
2018-12-17T19:15:01.392Z,29.20
2018-12-17T19:17:29.519Z,32.77
2018-12-17T19:19:57.590Z,32.10
2018-12-17T19:22:25.697Z,27.90
2018-12-17T19:24:53.783Z,24.03
2018-12-17T19:27:21.950Z,25.20
2018-12-17T19:29:50.048Z,34.53
2018-12-17T19:32:18.147Z,30.40
2018-12-17T19:34:46.233Z,31.07
2018-12-17T19:37:14.315Z,26.23
2018-12-17T19:39:42.433Z,31.67
2018-12-17T19:42:10.513Z,28.63
2018-12-17T19:44:38.591Z,31.40
2018-12-17T19:47:06.720Z,33.03
2018-12-17T19:49:34.783Z,30.13
2018-12-17T19:52:02.915Z,36.40
2018-12-17T19:54:31.007Z,28.73
2018-12-17T19:56:59.116Z,33.53
2018-12-17T19:59:27.209Z,30.43
2018-12-17T20:01:55.327Z,29.87
2018-12-17T20:04:23.460Z,25.60
2018-12-17T20:06:51.649Z,29.97
2018-12-17T20:09:19.718Z,30.90
2018-12-17T20:11:47.812Z,29.23
2018-12-17T20:14:15.940Z,31.07
2018-12-17T20:16:44.115Z,34.67
2018-12-17T20:19:12.239Z,34.37
2018-12-17T20:21:40.335Z,34.00
2018-12-17T20:24:08.433Z,37.57
2018-12-17T20:26:36.547Z,30.00
2018-12-17T20:29:04.674Z,32.70
2018-12-17T20:31:32.747Z,27.77
2018-12-17T20:34:00.869Z,29.87
2018-12-17T20:36:28.942Z,30.23
2018-12-17T20:38:57.091Z,29.63
2018-12-17T20:41:25.162Z,30.53
2018-12-17T20:43:53.277Z,28.23
2018-12-17T20:46:21.393Z,25.37
2018-12-17T20:48:49.543Z,28.40
2018-12-17T20:51:17.650Z,28.87
2018-12-17T20:53:45.776Z,28.93
2018-12-17T20:56:13.909Z,29.93
2018-12-17T20:58:42.013Z,30.50
2018-12-17T21:01:10.112Z,27.20
2018-12-17T21:03:38.222Z,32.40
2018-12-17T21:06:06.299Z,30.63
2018-12-17T21:08:34.428Z,32.27
2018-12-17T21:11:02.545Z,26.50
2018-12-17T21:13:30.639Z,25.97
2018-12-17T21:15:58.927Z,31.53
2018-12-17T21:18:27.018Z,32.33
2018-12-17T21:20:55.153Z,27.43
2018-12-17T21:23:23.731Z,32.90
2018-12-17T21:25:51.956Z,31.20
2018-12-17T21:28:20.053Z,31.87
2018-12-17T21:30:48.150Z,36.57
2018-12-17T21:33:16.420Z,28.30
2018-12-17T21:35:44.502Z,37.40
2018-12-17T21:38:12.852Z,31.97
2018-12-17T21:40:40.934Z,33.33
2018-12-17T21:43:09.050Z,41.23
2018-12-17T21:45:37.146Z,36.07
2018-12-17T21:48:05.265Z,33.80
2018-12-17T21:50:33.356Z,36.43
2018-12-17T21:53:01.520Z,31.07
2018-12-17T21:55:29.631Z,32.13
2018-12-17T21:58:00.025Z,35.87
2018-12-17T22:00:28.322Z,36.77
2018-12-17T22:02:56.430Z,32.80
2018-12-17T22:05:27.038Z,36.20
2018-12-17T22:07:55.117Z,41.23
2018-12-17T22:10:25.371Z,40.33
2018-12-17T22:12:53.652Z,35.00
2018-12-17T22:15:21.729Z,37.63
2018-12-17T22:17:49.803Z,45.10
2018-12-17T22:20:17.918Z,37.33
2018-12-17T22:22:46.036Z,36.63
2018-12-17T22:25:14.170Z,38.97
2018-12-17T22:27:42.244Z,40.33
2018-12-17T22:30:10.453Z,38.50
2018-12-17T22:32:38.530Z,34.47
2018-12-17T22:35:06.908Z,28.40
2018-12-17T22:37:35.021Z,39.30
2018-12-17T22:40:04.300Z,39.07
2018-12-17T22:42:32.371Z,35.50
2018-12-17T22:45:00.483Z,35.90
2018-12-17T22:47:28.587Z,36.40
2018-12-17T22:49:56.656Z,36.23
2018-12-17T22:52:24.778Z,41.73
2018-12-17T22:54:53.064Z,31.70
2018-12-17T22:57:21.121Z,34.63
2018-12-17T22:59:49.216Z,33.97
2018-12-17T23:02:17.296Z,35.70
2018-12-17T23:04:45.398Z,32.23
2018-12-17T23:07:13.486Z,27.93
2018-12-17T23:09:54.223Z,33.57
2018-12-17T23:12:34.185Z,39.73
2018-12-17T23:15:14.101Z,35.03
2018-12-17T23:17:41.796Z,32.50
2018-12-17T23:20:10.037Z,32.60
2018-12-17T23:22:38.758Z,36.07
2018-12-17T23:25:07.104Z,32.80
2018-12-17T23:27:35.171Z,33.00
2018-12-17T23:30:05.698Z,34.60
2018-12-17T23:32:34.141Z,28.50
2018-12-17T23:35:02.371Z,36.90
2018-12-17T23:37:30.433Z,35.13
2018-12-17T23:39:58.522Z,26.57
2018-12-17T23:42:28.301Z,32.83
2018-12-17T23:44:56.570Z,26.37
2018-12-17T23:47:24.667Z,28.40
2018-12-17T23:49:52.740Z,26.17
2018-12-17T23:52:20.933Z,27.80
2018-12-17T23:54:48.978Z,27.40
2018-12-17T23:57:17.068Z,38.27
2018-12-17T23:59:45.203Z,29.93
